sensor_id;sensor_type;location;lat;lon;timestamp;temperature;humidity
31747;DHT22;18319;48.974;8.462;2023-12-14T00:00:08;7.10;99.90
31747;DHT22;18319;48.974;8.462;2023-12-14T00:02:35;7.10;99.90
31747;DHT22;18319;48.974;8.462;2023-12-14T00:05:02;7.00;99.90
31747;DHT22;18319;48.974;8.462;2023-12-14T00:07:30;7.10;99.90
31747;DHT22;18319;48.974;8.462;2023-12-14T00:09:57;7.00;99.90
31747;DHT22;18319;48.974;8.462;2023-12-14T00:12:24;7.10;99.90
31747;DHT22;18319;48.974;8.462;2023-12-14T00:14:51;7.00;99.90
31747;DHT22;18319;48.974;8.462;2023-12-14T00:17:17;7.10;99.90
31747;DHT22;18319;48.974;8.462;2023-12-14T00:19:44;7.20;99.90
31747;DHT22;18319;48.974;8.462;2023-12-14T00:22:11;7.20;99.90
31747;DHT22;18319;48.974;8.462;2023-12-14T00:24:39;7.30;99.90
31747;DHT22;18319;48.974;8.462;2023-12-14T00:27:06;7.20;99.90
31747;DHT22;18319;48.974;8.462;2023-12-14T00:29:32;7.20;99.90
31747;DHT22;18319;48.974;8.462;2023-12-14T00:34:28;7.30;99.90
31747;DHT22;18319;48.974;8.462;2023-12-14T00:36:54;7.30;99.90
31747;DHT22;18319;48.974;8.462;2023-12-14T00:41:50;7.30;99.90
31747;DHT22;18319;48.974;8.462;2023-12-14T00:44:17;7.30;99.90
31747;DHT22;18319;48.974;8.462;2023-12-14T00:46:43;7.30;99.90
31747;DHT22;18319;48.974;8.462;2023-12-14T00:49:10;7.30;99.90
31747;DHT22;18319;48.974;8.462;2023-12-14T00:51:39;7.50;99.90
31747;DHT22;18319;48.974;8.462;2023-12-14T00:56:33;7.40;99.90
31747;DHT22;18319;48.974;8.462;2023-12-14T00:59:01;7.40;99.90
31747;DHT22;18319;48.974;8.462;2023-12-14T01:01:28;7.40;99.90
31747;DHT22;18319;48.974;8.462;2023-12-14T01:03:54;7.50;99.90
31747;DHT22;18319;48.974;8.462;2023-12-14T01:06:21;7.40;99.90
31747;DHT22;18319;48.974;8.462;2023-12-14T01:08:48;7.50;99.90
31747;DHT22;18319;48.974;8.462;2023-12-14T01:11:15;7.50;99.90
31747;DHT22;18319;48.974;8.462;2023-12-14T01:13:42;7.40;99.90
31747;DHT22;18319;48.974;8.462;2023-12-14T01:16:10;7.50;99.90
31747;DHT22;18319;48.974;8.462;2023-12-14T01:18:37;7.50;99.90
31747;DHT22;18319;48.974;8.462;2023-12-14T01:21:04;7.50;99.90
31747;DHT22;18319;48.974;8.462;2023-12-14T01:23:30;7.50;99.90
31747;DHT22;18319;48.974;8.462;2023-12-14T01:30:52;7.40;99.90
31747;DHT22;18319;48.974;8.462;2023-12-14T01:33:21;7.40;99.90
31747;DHT22;18319;48.974;8.462;2023-12-14T01:35:47;7.30;99.90
31747;DHT22;18319;48.974;8.462;2023-12-14T01:38:14;7.20;99.90
31747;DHT22;18319;48.974;8.462;2023-12-14T01:40:41;7.20;99.90
31747;DHT22;18319;48.974;8.462;2023-12-14T01:43:08;7.20;99.90
31747;DHT22;18319;48.974;8.462;2023-12-14T01:45:36;7.20;99.90
31747;DHT22;18319;48.974;8.462;2023-12-14T01:48:05;7.20;99.90
31747;DHT22;18319;48.974;8.462;2023-12-14T01:50:33;7.20;99.90
31747;DHT22;18319;48.974;8.462;2023-12-14T01:53:00;7.30;99.90
31747;DHT22;18319;48.974;8.462;2023-12-14T01:55:26;7.30;99.90
31747;DHT22;18319;48.974;8.462;2023-12-14T01:57:53;7.30;99.90
31747;DHT22;18319;48.974;8.462;2023-12-14T02:00:28;7.30;99.90
31747;DHT22;18319;48.974;8.462;2023-12-14T02:02:57;7.30;99.90
31747;DHT22;18319;48.974;8.462;2023-12-14T02:05:23;7.30;99.90
31747;DHT22;18319;48.974;8.462;2023-12-14T02:07:51;7.40;99.90
31747;DHT22;18319;48.974;8.462;2023-12-14T02:10:18;7.30;99.90
31747;DHT22;18319;48.974;8.462;2023-12-14T02:15:12;7.20;99.90
31747;DHT22;18319;48.974;8.462;2023-12-14T02:17:39;7.20;99.90
31747;DHT22;18319;48.974;8.462;2023-12-14T02:20:06;7.30;99.90
31747;DHT22;18319;48.974;8.462;2023-12-14T02:22:36;7.30;99.90
31747;DHT22;18319;48.974;8.462;2023-12-14T02:25:14;7.30;99.90
31747;DHT22;18319;48.974;8.462;2023-12-14T02:27:41;7.30;99.90
31747;DHT22;18319;48.974;8.462;2023-12-14T02:30:08;7.20;99.90
31747;DHT22;18319;48.974;8.462;2023-12-14T02:32:35;7.20;99.90
31747;DHT22;18319;48.974;8.462;2023-12-14T02:35:02;7.20;99.90
31747;DHT22;18319;48.974;8.462;2023-12-14T02:39:57;7.20;99.90
31747;DHT22;18319;48.974;8.462;2023-12-14T02:42:27;7.30;99.90
31747;DHT22;18319;48.974;8.462;2023-12-14T02:44:53;7.30;99.90
31747;DHT22;18319;48.974;8.462;2023-12-14T02:47:20;7.40;99.90
31747;DHT22;18319;48.974;8.462;2023-12-14T02:54:41;7.40;99.90
31747;DHT22;18319;48.974;8.462;2023-12-14T02:57:09;7.40;99.90
31747;DHT22;18319;48.974;8.462;2023-12-14T02:59:36;7.50;99.90
31747;DHT22;18319;48.974;8.462;2023-12-14T03:06:57;7.50;99.90
31747;DHT22;18319;48.974;8.462;2023-12-14T03:09:27;7.50;99.90
31747;DHT22;18319;48.974;8.462;2023-12-14T03:11:54;7.50;99.90
31747;DHT22;18319;48.974;8.462;2023-12-14T03:14:22;7.50;99.90
31747;DHT22;18319;48.974;8.462;2023-12-14T03:16:49;7.60;99.90
31747;DHT22;18319;48.974;8.462;2023-12-14T03:19:16;7.60;99.90
31747;DHT22;18319;48.974;8.462;2023-12-14T03:21:43;7.50;99.90
31747;DHT22;18319;48.974;8.462;2023-12-14T03:24:09;7.60;99.90
31747;DHT22;18319;48.974;8.462;2023-12-14T03:26:36;7.60;99.90
31747;DHT22;18319;48.974;8.462;2023-12-14T03:29:03;7.60;99.90
31747;DHT22;18319;48.974;8.462;2023-12-14T03:31:31;7.60;99.90
31747;DHT22;18319;48.974;8.462;2023-12-14T03:33:58;7.60;99.90
31747;DHT22;18319;48.974;8.462;2023-12-14T03:36:24;7.60;99.90
31747;DHT22;18319;48.974;8.462;2023-12-14T03:38:53;7.60;99.90
31747;DHT22;18319;48.974;8.462;2023-12-14T03:41:19;7.60;99.90
31747;DHT22;18319;48.974;8.462;2023-12-14T03:43:46;7.60;99.90
31747;DHT22;18319;48.974;8.462;2023-12-14T03:46:13;7.60;99.90
31747;DHT22;18319;48.974;8.462;2023-12-14T03:48:41;7.60;99.90
31747;DHT22;18319;48.974;8.462;2023-12-14T03:51:08;7.60;99.90
31747;DHT22;18319;48.974;8.462;2023-12-14T03:53:34;7.60;99.90
31747;DHT22;18319;48.974;8.462;2023-12-14T03:56:03;7.60;99.90
31747;DHT22;18319;48.974;8.462;2023-12-14T03:58:30;7.60;99.90
31747;DHT22;18319;48.974;8.462;2023-12-14T04:00:56;7.60;99.90
31747;DHT22;18319;48.974;8.462;2023-12-14T04:03:23;7.70;99.90
31747;DHT22;18319;48.974;8.462;2023-12-14T04:05:51;7.60;99.90
31747;DHT22;18319;48.974;8.462;2023-12-14T04:08:18;7.60;99.90
31747;DHT22;18319;48.974;8.462;2023-12-14T04:10:45;7.60;99.90
31747;DHT22;18319;48.974;8.462;2023-12-14T04:13:12;7.70;99.90
31747;DHT22;18319;48.974;8.462;2023-12-14T04:15:38;7.70;99.90
31747;DHT22;18319;48.974;8.462;2023-12-14T04:18:06;7.70;99.90
31747;DHT22;18319;48.974;8.462;2023-12-14T04:20:33;7.70;99.90
31747;DHT22;18319;48.974;8.462;2023-12-14T04:23:01;7.70;99.90
31747;DHT22;18319;48.974;8.462;2023-12-14T04:25:28;7.70;99.90
31747;DHT22;18319;48.974;8.462;2023-12-14T04:27:55;7.60;99.90
31747;DHT22;18319;48.974;8.462;2023-12-14T04:30:22;7.70;99.90
31747;DHT22;18319;48.974;8.462;2023-12-14T04:32:49;7.70;99.90
31747;DHT22;18319;48.974;8.462;2023-12-14T04:35:16;7.70;99.90
31747;DHT22;18319;48.974;8.462;2023-12-14T04:37:42;7.70;99.90
31747;DHT22;18319;48.974;8.462;2023-12-14T04:40:11;7.70;99.90
31747;DHT22;18319;48.974;8.462;2023-12-14T04:47:34;7.60;99.90
31747;DHT22;18319;48.974;8.462;2023-12-14T04:50:01;7.60;99.90
31747;DHT22;18319;48.974;8.462;2023-12-14T04:52:28;7.60;99.90
31747;DHT22;18319;48.974;8.462;2023-12-14T04:54:54;7.70;99.90
31747;DHT22;18319;48.974;8.462;2023-12-14T04:57:23;7.70;99.90
31747;DHT22;18319;48.974;8.462;2023-12-14T04:59:49;7.80;99.90
31747;DHT22;18319;48.974;8.462;2023-12-14T05:02:16;7.70;99.90
31747;DHT22;18319;48.974;8.462;2023-12-14T05:04:43;7.70;99.90
31747;DHT22;18319;48.974;8.462;2023-12-14T05:07:09;7.60;99.90
31747;DHT22;18319;48.974;8.462;2023-12-14T05:09:36;7.60;99.90
31747;DHT22;18319;48.974;8.462;2023-12-14T05:12:03;7.70;99.90
31747;DHT22;18319;48.974;8.462;2023-12-14T05:14:32;7.60;99.90
31747;DHT22;18319;48.974;8.462;2023-12-14T05:16:58;7.60;99.90
31747;DHT22;18319;48.974;8.462;2023-12-14T05:24:20;7.60;99.90
31747;DHT22;18319;48.974;8.462;2023-12-14T05:26:46;7.60;99.90
31747;DHT22;18319;48.974;8.462;2023-12-14T05:29:13;7.70;99.90
31747;DHT22;18319;48.974;8.462;2023-12-14T05:31:41;7.70;99.90
31747;DHT22;18319;48.974;8.462;2023-12-14T05:34:08;7.70;99.90
31747;DHT22;18319;48.974;8.462;2023-12-14T05:39:02;7.70;99.90
31747;DHT22;18319;48.974;8.462;2023-12-14T05:41:29;7.80;99.90
31747;DHT22;18319;48.974;8.462;2023-12-14T05:43:56;7.70;99.90
31747;DHT22;18319;48.974;8.462;2023-12-14T05:46:23;7.70;99.90
31747;DHT22;18319;48.974;8.462;2023-12-14T05:48:51;7.70;99.90
31747;DHT22;18319;48.974;8.462;2023-12-14T05:58:47;7.80;99.90
31747;DHT22;18319;48.974;8.462;2023-12-14T06:01:16;7.80;99.90
31747;DHT22;18319;48.974;8.462;2023-12-14T06:03:46;7.80;99.90
31747;DHT22;18319;48.974;8.462;2023-12-14T06:28:20;7.50;99.90
31747;DHT22;18319;48.974;8.462;2023-12-14T06:30:47;7.50;99.90
31747;DHT22;18319;48.974;8.462;2023-12-14T06:33:14;7.50;99.90
31747;DHT22;18319;48.974;8.462;2023-12-14T07:00:15;7.60;99.90
31747;DHT22;18319;48.974;8.462;2023-12-14T07:02:42;7.60;99.90
31747;DHT22;18319;48.974;8.462;2023-12-14T07:07:36;7.60;99.90
31747;DHT22;18319;48.974;8.462;2023-12-14T07:39:32;7.70;99.90
31747;DHT22;18319;48.974;8.462;2023-12-14T08:21:21;7.90;99.90
31747;DHT22;18319;48.974;8.462;2023-12-14T08:33:38;8.10;99.90
31747;DHT22;18319;48.974;8.462;2023-12-14T08:58:12;8.30;99.90
31747;DHT22;18319;48.974;8.462;2023-12-14T09:10:27;8.50;99.90
31747;DHT22;18319;48.974;8.462;2023-12-14T10:07:06;8.50;99.90
31747;DHT22;18319;48.974;8.462;2023-12-14T10:09:33;8.60;99.90
31747;DHT22;18319;48.974;8.462;2023-12-14T10:21:53;8.60;99.90
31747;DHT22;18319;48.974;8.462;2023-12-14T10:24:22;8.60;99.90
31747;DHT22;18319;48.974;8.462;2023-12-14T10:31:44;9.00;99.90
31747;DHT22;18319;48.974;8.462;2023-12-14T10:36:39;9.30;99.90
31747;DHT22;18319;48.974;8.462;2023-12-14T10:53:56;10.00;99.90
31747;DHT22;18319;48.974;8.462;2023-12-14T10:56:23;9.80;99.90
31747;DHT22;18319;48.974;8.462;2023-12-14T11:03:49;9.50;99.90
31747;DHT22;18319;48.974;8.462;2023-12-14T11:41:58;8.90;99.90
31747;DHT22;18319;48.974;8.462;2023-12-14T12:24:26;8.90;99.90
31747;DHT22;18319;48.974;8.462;2023-12-14T13:13:37;9.30;99.90
31747;DHT22;18319;48.974;8.462;2023-12-14T13:20:59;9.30;99.90
31747;DHT22;18319;48.974;8.462;2023-12-14T13:28:21;9.50;99.90
31747;DHT22;18319;48.974;8.462;2023-12-14T15:31:29;8.10;99.90
31747;DHT22;18319;48.974;8.462;2023-12-14T18:13:48;6.90;99.90
31747;DHT22;18319;48.974;8.462;2023-12-14T18:21:10;6.90;99.90
31747;DHT22;18319;48.974;8.462;2023-12-14T18:40:49;6.90;99.90
31747;DHT22;18319;48.974;8.462;2023-12-14T18:45:43;6.90;99.90
31747;DHT22;18319;48.974;8.462;2023-12-14T18:50:37;6.90;99.90
31747;DHT22;18319;48.974;8.462;2023-12-14T18:55:34;6.90;99.90
31747;DHT22;18319;48.974;8.462;2023-12-14T18:58:01;6.80;99.90
31747;DHT22;18319;48.974;8.462;2023-12-14T19:00:28;6.70;99.90
31747;DHT22;18319;48.974;8.462;2023-12-14T19:02:55;6.70;99.90
31747;DHT22;18319;48.974;8.462;2023-12-14T19:05:22;6.60;99.90
31747;DHT22;18319;48.974;8.462;2023-12-14T19:07:51;6.60;99.90
31747;DHT22;18319;48.974;8.462;2023-12-14T19:10:19;6.50;99.90
31747;DHT22;18319;48.974;8.462;2023-12-14T19:12:46;6.50;99.90
31747;DHT22;18319;48.974;8.462;2023-12-14T19:15:13;6.50;99.90
31747;DHT22;18319;48.974;8.462;2023-12-14T19:17:40;6.50;99.90
31747;DHT22;18319;48.974;8.462;2023-12-14T19:20:08;6.50;99.90
31747;DHT22;18319;48.974;8.462;2023-12-14T19:22:35;6.30;99.90
31747;DHT22;18319;48.974;8.462;2023-12-14T19:25:05;6.30;99.90
31747;DHT22;18319;48.974;8.462;2023-12-14T19:57:07;6.20;99.90
31747;DHT22;18319;48.974;8.462;2023-12-14T19:59:34;6.20;99.90
31747;DHT22;18319;48.974;8.462;2023-12-14T21:18:21;5.90;99.90
31747;DHT22;18319;48.974;8.462;2023-12-14T21:20:48;5.90;99.90
